Time;durP1;ratioP1;P1;durP2;ratioP2;P2;SDS_P1;SDS_P2;PMS_P1;PMS_P2;Temp;Humidity;BMP_temperature;BMP_pressure;BME280_temperature;BME280_humidity;BME280_pressure;Samples;Min_cycle;Max_cycle;Signal;HPM_P1;HPM_P2
2024/02/19 00:01:51;;;;;;;;;;;2.90;99.90;;;;;;5026170;28;19956;-78
2024/02/19 00:04:17;;;;;;;;;;;3.00;99.90;;;;;;5009995;28;19905;-79
2024/02/19 00:06:43;;;;;;;;;;;2.90;99.90;;;;;;5011481;28;19909;-79
2024/02/19 00:09:08;;;;;;;;;;;3.50;99.90;;;;;;5009892;28;20011;-80
2024/02/19 00:11:34;;;;;;;;;;;3.10;99.90;;;;;;5027593;28;19936;-79
2024/02/19 00:13:59;;;;;;;;;;;3.00;99.90;;;;;;5009990;28;19937;-79
2024/02/19 00:16:25;;;;;;;;;;;2.90;99.90;;;;;;5027225;28;19917;-80
2024/02/19 00:18:50;;;;;;;;;;;2.70;99.90;;;;;;5027107;28;20386;-80
2024/02/19 00:21:16;;;;;;;;;;;3.50;99.90;;;;;;5025333;28;19952;-78
2024/02/19 00:23:45;;;;;;;;;;;2.70;99.90;;;;;;5009485;28;19909;-79
2024/02/19 00:26:10;;;;;;;;;;;2.70;99.90;;;;;;5008972;28;19928;-79
2024/02/19 00:28:36;;;;;;;;;;;2.50;99.90;;;;;;5009673;28;19909;-79
2024/02/19 00:31:01;;;;;;;;;;;2.80;99.90;;;;;;5027969;28;19924;-79
2024/02/19 00:33:27;;;;;;;;;;;3.10;99.90;;;;;;5028484;28;19905;-80
2024/02/19 00:35:53;;;;;;;;;;;3.30;99.90;;;;;;5012029;28;19928;-78
2024/02/19 00:38:19;;;;;;;;;;;2.40;99.90;;;;;;5028641;28;19941;-80
2024/02/19 00:40:45;;;;;;;;;;;2.60;99.90;;;;;;5029226;28;19932;-79
2024/02/19 00:43:11;;;;;;;;;;;2.80;99.90;;;;;;5011058;28;19909;-80
2024/02/19 00:45:37;;;;;;;;;;;2.80;99.90;;;;;;5011448;28;19918;-79
2024/02/19 00:48:02;;;;;;;;;;;2.40;99.90;;;;;;5014738;28;19909;-79
2024/02/19 00:50:28;;;;;;;;;;;2.90;99.90;;;;;;5014533;28;19961;-79
2024/02/19 00:52:54;;;;;;;;;;;2.90;99.90;;;;;;5015366;28;19890;-80
2024/02/19 00:55:21;;;;;;;;;;;3.00;99.90;;;;;;5013325;28;19910;-80
2024/02/19 00:57:47;;;;;;;;;;;3.10;99.90;;;;;;5015537;28;19911;-79
2024/02/19 01:00:13;;;;;;;;;;;3.40;99.90;;;;;;5017154;28;19916;-77
2024/02/19 01:02:39;;;;;;;;;;;2.30;99.90;;;;;;5033389;28;19948;-79
2024/02/19 01:05:04;;;;;;;;;;;3.40;99.90;;;;;;5008880;28;19929;-78
2024/02/19 01:07:30;;;;;;;;;;;3.10;99.90;;;;;;5008377;28;19909;-80
2024/02/19 01:09:56;;;;;;;;;;;3.10;99.90;;;;;;5007995;28;19916;-79
2024/02/19 01:12:21;;;;;;;;;;;3.10;99.90;;;;;;5026076;28;20332;-79
2024/02/19 01:14:47;;;;;;;;;;;3.10;99.90;;;;;;5007998;28;20045;-80
2024/02/19 01:17:13;;;;;;;;;;;3.10;99.90;;;;;;5022893;28;19984;-78
2024/02/19 01:19:39;;;;;;;;;;;3.00;99.90;;;;;;5006932;28;19905;-78
2024/02/19 01:22:04;;;;;;;;;;;3.00;99.90;;;;;;5007336;28;19917;-79
2024/02/19 01:24:31;;;;;;;;;;;3.10;99.90;;;;;;5011679;28;20403;-79
2024/02/19 01:26:57;;;;;;;;;;;3.10;99.90;;;;;;5013710;28;19921;-79
2024/02/19 01:29:24;;;;;;;;;;;3.10;99.90;;;;;;5016761;28;19916;-79
2024/02/19 01:31:50;;;;;;;;;;;3.40;99.90;;;;;;5036489;28;19968;-79
2024/02/19 01:34:17;;;;;;;;;;;3.20;99.90;;;;;;5020349;28;19973;-80
2024/02/19 01:36:44;;;;;;;;;;;3.10;99.90;;;;;;5016292;28;19917;-80
2024/02/19 01:39:10;;;;;;;;;;;3.30;99.90;;;;;;5007664;28;19916;-79
2024/02/19 01:41:36;;;;;;;;;;;3.30;99.90;;;;;;5006492;28;19914;-79
2024/02/19 01:44:02;;;;;;;;;;;3.40;99.90;;;;;;5010705;28;19909;-79
2024/02/19 01:46:29;;;;;;;;;;;3.40;99.90;;;;;;5009513;28;19936;-80
2024/02/19 01:48:54;;;;;;;;;;;3.40;99.90;;;;;;5012163;28;19909;-80
2024/02/19 01:51:20;;;;;;;;;;;3.50;99.90;;;;;;5012247;28;20377;-79
2024/02/19 01:53:46;;;;;;;;;;;3.40;99.90;;;;;;5010950;28;19969;-80
2024/02/19 01:56:12;;;;;;;;;;;3.40;99.90;;;;;;5028890;28;19913;-79
2024/02/19 01:58:37;;;;;;;;;;;3.50;99.90;;;;;;5011894;28;19906;-80
2024/02/19 02:01:04;;;;;;;;;;;3.40;99.90;;;;;;5011721;28;19910;-79
2024/02/19 02:03:30;;;;;;;;;;;3.40;99.90;;;;;;5013796;28;19955;-79
2024/02/19 02:05:56;;;;;;;;;;;3.40;99.90;;;;;;5019566;28;19945;-79
2024/02/19 02:08:21;;;;;;;;;;;3.30;99.90;;;;;;5021199;28;19925;-78
2024/02/19 02:10:47;;;;;;;;;;;3.30;99.90;;;;;;5015392;28;19936;-79
2024/02/19 02:13:12;;;;;;;;;;;3.20;99.90;;;;;;5021310;28;19993;-79
2024/02/19 02:15:38;;;;;;;;;;;3.20;99.90;;;;;;5021567;28;19919;-80
2024/02/19 02:18:04;;;;;;;;;;;3.20;99.90;;;;;;5021117;28;19949;-78
2024/02/19 02:20:31;;;;;;;;;;;3.00;99.90;;;;;;5017110;28;19905;-78
2024/02/19 02:22:57;;;;;;;;;;;2.90;99.90;;;;;;5007564;28;19966;-79
2024/02/19 02:25:23;;;;;;;;;;;2.80;99.90;;;;;;5026260;28;19909;-78
2024/02/19 02:27:48;;;;;;;;;;;2.70;99.90;;;;;;5008656;28;20000;-79
2024/02/19 02:30:14;;;;;;;;;;;2.70;99.90;;;;;;5026387;28;20301;-79
2024/02/19 02:32:39;;;;;;;;;;;2.60;99.90;;;;;;5008556;28;20004;-79
2024/02/19 02:35:05;;;;;;;;;;;2.60;99.90;;;;;;5026247;28;19905;-79
2024/02/19 02:37:31;;;;;;;;;;;2.50;99.90;;;;;;5026017;28;19914;-79
2024/02/19 02:39:56;;;;;;;;;;;2.50;99.90;;;;;;5007891;28;19912;-79
2024/02/19 02:42:22;;;;;;;;;;;2.60;99.90;;;;;;5007763;28;19952;-79
2024/02/19 02:44:47;;;;;;;;;;;2.60;99.90;;;;;;5008409;28;19983;-79
2024/02/19 02:47:13;;;;;;;;;;;2.50;99.90;;;;;;5009108;28;19913;-79
2024/02/19 02:49:38;;;;;;;;;;;2.50;99.90;;;;;;5009480;28;19905;-79
2024/02/19 02:52:04;;;;;;;;;;;2.50;99.90;;;;;;5008826;28;19905;-80
2024/02/19 02:54:30;;;;;;;;;;;2.50;99.90;;;;;;5020293;28;19905;-79
2024/02/19 02:56:55;;;;;;;;;;;2.60;99.90;;;;;;4999853;28;19925;-78
2024/02/19 02:59:21;;;;;;;;;;;2.60;99.90;;;;;;4994878;28;19905;-77
2024/02/19 03:01:47;;;;;;;;;;;2.50;99.90;;;;;;5018184;28;19953;-78
2024/02/19 03:04:13;;;;;;;;;;;2.50;99.90;;;;;;5004281;28;20374;-80
2024/02/19 03:06:38;;;;;;;;;;;2.40;99.90;;;;;;5005199;28;19963;-78
2024/02/19 03:09:05;;;;;;;;;;;2.30;99.90;;;;;;5023390;28;19905;-78
2024/02/19 03:11:30;;;;;;;;;;;2.20;99.90;;;;;;5005978;28;20011;-78
2024/02/19 03:13:56;;;;;;;;;;;2.20;99.90;;;;;;5023252;28;19982;-79
2024/02/19 03:16:22;;;;;;;;;;;2.20;99.90;;;;;;5023712;28;19928;-79
2024/02/19 03:18:47;;;;;;;;;;;2.10;99.90;;;;;;5023799;28;19975;-79
2024/02/19 03:21:15;;;;;;;;;;;2.20;99.90;;;;;;5022248;28;19905;-79
2024/02/19 03:23:53;;;;;;;;;;;2.10;99.90;;;;;;5008825;28;19905;-79
2024/02/19 03:26:22;;;;;;;;;;;2.00;99.90;;;;;;5008976;28;19901;-79
2024/02/19 03:28:48;;;;;;;;;;;2.00;99.90;;;;;;5008639;28;19958;-80
2024/02/19 03:31:13;;;;;;;;;;;2.00;99.90;;;;;;5025934;28;19948;-80
2024/02/19 03:33:39;;;;;;;;;;;2.00;99.90;;;;;;5027429;28;19909;-79
2024/02/19 03:36:06;;;;;;;;;;;2.00;99.90;;;;;;5009665;28;19921;-78
2024/02/19 03:38:31;;;;;;;;;;;2.00;99.90;;;;;;5008990;28;19917;-79
2024/02/19 03:40:57;;;;;;;;;;;2.00;99.90;;;;;;5009116;28;19917;-79
2024/02/19 03:43:22;;;;;;;;;;;2.00;99.90;;;;;;5026482;28;19921;-79
2024/02/19 03:45:50;;;;;;;;;;;2.10;99.90;;;;;;5025982;28;19921;-79
2024/02/19 03:48:15;;;;;;;;;;;2.10;99.90;;;;;;5025600;28;19905;-79
2024/02/19 03:50:41;;;;;;;;;;;2.10;99.90;;;;;;5025592;28;19972;-79
2024/02/19 03:53:06;;;;;;;;;;;2.10;99.90;;;;;;5025984;28;19910;-76
2024/02/19 03:55:32;;;;;;;;;;;2.10;99.90;;;;;;5009107;28;19913;-77
2024/02/19 03:57:59;;;;;;;;;;;2.00;99.90;;;;;;5025819;28;19936;-77
2024/02/19 04:00:25;;;;;;;;;;;2.00;99.90;;;;;;5026443;28;19917;-77
2024/02/19 04:02:50;;;;;;;;;;;1.90;99.90;;;;;;5009687;28;19906;-77
2024/02/19 04:05:16;;;;;;;;;;;1.90;99.90;;;;;;5026423;28;19909;-78
2024/02/19 04:07:41;;;;;;;;;;;1.90;99.90;;;;;;5010192;28;19909;-77
2024/02/19 04:10:07;;;;;;;;;;;2.00;99.90;;;;;;5027858;28;19933;-77
2024/02/19 04:12:32;;;;;;;;;;;1.90;99.90;;;;;;5009528;28;19959;-77
2024/02/19 04:14:58;;;;;;;;;;;2.00;99.90;;;;;;5008279;28;19906;-78
2024/02/19 04:17:25;;;;;;;;;;;2.00;99.90;;;;;;5007747;28;19920;-78
2024/02/19 04:19:55;;;;;;;;;;;2.10;99.90;;;;;;5007894;28;19889;-77
2024/02/19 04:22:20;;;;;;;;;;;2.20;99.90;;;;;;5008847;28;19906;-78
2024/02/19 04:24:47;;;;;;;;;;;2.40;99.90;;;;;;5015166;28;20379;-77
2024/02/19 04:27:14;;;;;;;;;;;2.50;99.90;;;;;;5013647;28;19911;-77
2024/02/19 04:29:39;;;;;;;;;;;2.60;99.90;;;;;;5006543;28;19905;-77
2024/02/19 04:32:05;;;;;;;;;;;2.80;99.90;;;;;;5006266;28;19988;-78
2024/02/19 04:34:32;;;;;;;;;;;2.90;99.90;;;;;;5024858;28;19958;-78
2024/02/19 04:36:58;;;;;;;;;;;3.00;99.90;;;;;;5006606;28;19917;-78
2024/02/19 04:39:23;;;;;;;;;;;3.10;99.90;;;;;;5025140;28;20340;-78
2024/02/19 04:41:49;;;;;;;;;;;3.00;99.90;;;;;;5023804;28;19944;-77
2024/02/19 04:44:14;;;;;;;;;;;3.20;99.90;;;;;;5023015;28;19944;-76
2024/02/19 04:46:40;;;;;;;;;;;3.30;99.90;;;;;;5005429;28;20001;-78
2024/02/19 04:49:05;;;;;;;;;;;3.30;99.90;;;;;;5005851;28;19905;-78
2024/02/19 04:51:31;;;;;;;;;;;3.30;99.90;;;;;;5005761;28;19941;-77
2024/02/19 04:53:56;;;;;;;;;;;3.30;99.90;;;;;;5023323;28;19913;-78
2024/02/19 04:56:22;;;;;;;;;;;3.40;99.90;;;;;;5005300;28;19917;-78
2024/02/19 04:58:47;;;;;;;;;;;3.40;99.90;;;;;;5023478;28;19912;-76
2024/02/19 05:01:13;;;;;;;;;;;3.40;99.90;;;;;;5022331;28;19913;-77
2024/02/19 05:03:39;;;;;;;;;;;3.50;99.90;;;;;;5004582;28;19953;-77
2024/02/19 05:06:04;;;;;;;;;;;3.40;99.90;;;;;;5003515;28;19905;-78
2024/02/19 05:08:30;;;;;;;;;;;3.40;99.90;;;;;;5003625;28;19909;-78
2024/02/19 05:10:55;;;;;;;;;;;3.50;99.90;;;;;;5003821;28;19909;-78
2024/02/19 05:13:21;;;;;;;;;;;3.50;99.90;;;;;;5004447;28;19905;-78
2024/02/19 05:15:46;;;;;;;;;;;3.60;99.90;;;;;;5004022;28;19913;-77
2024/02/19 05:18:12;;;;;;;;;;;3.60;99.90;;;;;;5024414;28;19910;-79
2024/02/19 05:20:37;;;;;;;;;;;3.70;99.90;;;;;;5026179;28;19909;-79
2024/02/19 05:23:03;;;;;;;;;;;3.80;99.90;;;;;;5007360;28;19981;-78
2024/02/19 05:25:30;;;;;;;;;;;3.90;99.90;;;;;;5024906;28;19921;-77
2024/02/19 05:27:58;;;;;;;;;;;3.90;99.90;;;;;;5007142;28;19933;-79
2024/02/19 05:30:24;;;;;;;;;;;3.90;99.90;;;;;;5025143;28;19929;-78
2024/02/19 05:32:49;;;;;;;;;;;4.00;99.90;;;;;;5006952;28;20023;-78
2024/02/19 05:35:15;;;;;;;;;;;4.20;99.90;;;;;;5006403;28;20353;-79
2024/02/19 05:37:40;;;;;;;;;;;3.90;99.90;;;;;;5006937;28;19936;-78
2024/02/19 05:40:06;;;;;;;;;;;3.90;99.90;;;;;;5010762;28;20386;-78
2024/02/19 05:42:32;;;;;;;;;;;3.90;99.90;;;;;;5032723;28;20235;-78
2024/02/19 05:44:57;;;;;;;;;;;3.90;99.90;;;;;;5010746;28;19972;-78
2024/02/19 05:47:24;;;;;;;;;;;4.00;99.90;;;;;;5012356;28;20248;-77
2024/02/19 05:49:50;;;;;;;;;;;4.10;99.90;;;;;;5032657;28;19972;-79
2024/02/19 05:52:15;;;;;;;;;;;4.10;99.90;;;;;;5014471;28;20283;-78
2024/02/19 05:54:41;;;;;;;;;;;4.10;99.90;;;;;;5023043;28;19916;-77
2024/02/19 05:57:06;;;;;;;;;;;4.00;99.90;;;;;;5004788;28;20293;-77
2024/02/19 05:59:32;;;;;;;;;;;4.20;99.90;;;;;;5005244;28;20397;-78
2024/02/19 06:01:59;;;;;;;;;;;4.10;99.90;;;;;;5005646;28;19940;-78
2024/02/19 06:04:24;;;;;;;;;;;4.30;99.90;;;;;;5005186;28;19932;-78
2024/02/19 06:06:50;;;;;;;;;;;4.30;99.90;;;;;;5003976;28;19936;-78
2024/02/19 06:09:17;;;;;;;;;;;4.20;99.90;;;;;;5021386;28;19955;-78
2024/02/19 06:11:44;;;;;;;;;;;4.10;99.90;;;;;;5002414;28;19909;-78
2024/02/19 06:14:10;;;;;;;;;;;4.10;99.90;;;;;;5005202;28;19909;-77
2024/02/19 06:16:35;;;;;;;;;;;4.10;99.90;;;;;;4987626;28;20378;-78
2024/02/19 06:19:02;;;;;;;;;;;4.00;99.90;;;;;;5004100;28;19909;-78
2024/02/19 06:21:28;;;;;;;;;;;4.10;99.90;;;;;;5004097;28;20001;-78
2024/02/19 06:23:54;;;;;;;;;;;4.20;99.90;;;;;;5003911;28;19956;-78
2024/02/19 06:26:20;;;;;;;;;;;4.50;99.90;;;;;;5021100;28;19940;-79
2024/02/19 06:28:45;;;;;;;;;;;4.30;99.90;;;;;;5020173;28;19905;-78
2024/02/19 06:31:11;;;;;;;;;;;4.30;99.90;;;;;;5003814;28;20006;-79
2024/02/19 06:33:36;;;;;;;;;;;4.30;99.90;;;;;;5004068;28;19910;-78
2024/02/19 06:36:02;;;;;;;;;;;4.40;99.90;;;;;;5003864;28;19979;-77
2024/02/19 06:38:28;;;;;;;;;;;4.40;99.90;;;;;;5003527;28;19919;-78
2024/02/19 06:40:55;;;;;;;;;;;4.40;99.90;;;;;;5004076;28;19917;-78
2024/02/19 06:43:21;;;;;;;;;;;4.60;99.90;;;;;;5003812;28;19910;-77
2024/02/19 06:45:47;;;;;;;;;;;4.60;99.90;;;;;;5021352;28;19917;-79
2024/02/19 06:48:13;;;;;;;;;;;4.70;99.90;;;;;;5004900;28;19920;-78
2024/02/19 06:50:38;;;;;;;;;;;4.80;99.90;;;;;;5023414;28;19905;-78
2024/02/19 06:53:06;;;;;;;;;;;4.80;99.90;;;;;;5006304;28;19905;-76
2024/02/19 06:55:31;;;;;;;;;;;4.90;99.90;;;;;;5009112;28;20001;-78
2024/02/19 06:57:57;;;;;;;;;;;5.00;99.90;;;;;;5005351;28;19925;-78
2024/02/19 07:00:23;;;;;;;;;;;5.00;99.90;;;;;;5005950;28;19960;-78
2024/02/19 07:02:48;;;;;;;;;;;5.10;99.90;;;;;;5006179;28;19992;-79
2024/02/19 07:05:14;;;;;;;;;;;5.10;99.90;;;;;;5006040;28;19905;-78
2024/02/19 07:07:40;;;;;;;;;;;5.20;99.90;;;;;;5005120;28;19906;-78
2024/02/19 07:10:07;;;;;;;;;;;5.20;99.90;;;;;;5009391;28;19905;-79
2024/02/19 07:12:32;;;;;;;;;;;5.20;99.90;;;;;;5014210;28;19897;-78
2024/02/19 07:14:58;;;;;;;;;;;5.20;99.90;;;;;;5010535;28;20048;-76
2024/02/19 07:17:24;;;;;;;;;;;5.10;99.90;;;;;;5003500;28;19940;-79
2024/02/19 07:19:50;;;;;;;;;;;5.10;99.90;;;;;;5023241;28;19905;-79
2024/02/19 07:22:15;;;;;;;;;;;5.20;99.90;;;;;;5021925;28;19905;-78
2024/02/19 07:24:42;;;;;;;;;;;5.20;99.90;;;;;;5005381;28;19956;-80
2024/02/19 07:27:08;;;;;;;;;;;5.20;99.90;;;;;;5022223;28;19956;-77
2024/02/19 07:29:33;;;;;;;;;;;5.20;99.90;;;;;;5021857;28;19906;-78
2024/02/19 07:31:59;;;;;;;;;;;5.30;99.90;;;;;;5005275;28;19916;-79
2024/02/19 07:34:24;;;;;;;;;;;5.40;99.90;;;;;;5005901;28;20447;-78
2024/02/19 07:36:52;;;;;;;;;;;5.40;99.90;;;;;;5006431;28;19914;-78
2024/02/19 07:39:19;;;;;;;;;;;5.60;99.90;;;;;;5005928;28;20591;-80
2024/02/19 07:41:45;;;;;;;;;;;5.60;99.90;;;;;;5025277;28;19909;-77
2024/02/19 07:44:10;;;;;;;;;;;5.80;99.90;;;;;;5006593;28;19936;-78
2024/02/19 07:46:36;;;;;;;;;;;5.90;99.90;;;;;;5007236;28;19912;-79
2024/02/19 07:49:01;;;;;;;;;;;6.00;99.90;;;;;;5007320;28;19980;-79
2024/02/19 07:51:27;;;;;;;;;;;6.10;99.90;;;;;;5023105;28;20000;-79
2024/02/19 07:53:55;;;;;;;;;;;6.20;99.90;;;;;;5025498;28;19945;-78
2024/02/19 07:56:20;;;;;;;;;;;6.30;99.90;;;;;;5021523;28;19913;-78
2024/02/19 07:58:46;;;;;;;;;;;6.30;99.90;;;;;;5022700;28;19905;-77
2024/02/19 08:01:12;;;;;;;;;;;6.40;99.90;;;;;;5006769;28;19916;-78
2024/02/19 08:03:41;;;;;;;;;;;6.50;99.90;;;;;;5005535;28;20020;-78
2024/02/19 08:06:08;;;;;;;;;;;6.50;99.90;;;;;;5024127;28;19960;-79
2024/02/19 08:08:33;;;;;;;;;;;6.60;99.90;;;;;;5023834;28;19912;-78
2024/02/19 08:10:59;;;;;;;;;;;6.50;99.90;;;;;;5007303;28;19905;-78
2024/02/19 08:13:25;;;;;;;;;;;6.60;99.90;;;;;;5025692;28;19905;-76
2024/02/19 08:15:50;;;;;;;;;;;6.60;99.90;;;;;;5008353;28;19912;-78
2024/02/19 08:18:17;;;;;;;;;;;6.60;99.90;;;;;;5007912;28;19916;-78
2024/02/19 08:20:43;;;;;;;;;;;6.60;99.90;;;;;;5007376;28;19915;-77
2024/02/19 08:23:09;;;;;;;;;;;6.70;99.90;;;;;;5007645;28;19910;-78
2024/02/19 08:25:34;;;;;;;;;;;6.70;99.90;;;;;;5024698;28;19905;-78
2024/02/19 08:28:00;;;;;;;;;;;6.70;99.90;;;;;;5007949;28;19909;-79
2024/02/19 08:30:26;;;;;;;;;;;6.70;99.90;;;;;;5008083;28;19929;-78
2024/02/19 08:32:51;;;;;;;;;;;6.80;99.90;;;;;;5008568;28;19905;-77
2024/02/19 08:35:17;;;;;;;;;;;6.90;99.90;;;;;;5026303;28;19913;-78
2024/02/19 08:37:43;;;;;;;;;;;6.90;99.90;;;;;;5007432;28;19921;-79
2024/02/19 08:40:08;;;;;;;;;;;6.90;99.90;;;;;;5009152;28;20393;-79
2024/02/19 08:42:35;;;;;;;;;;;6.90;99.90;;;;;;5025839;28;19906;-78
2024/02/19 08:45:03;;;;;;;;;;;6.80;99.90;;;;;;5005347;28;20386;-78
2024/02/19 08:47:28;;;;;;;;;;;6.90;99.90;;;;;;5008621;28;19969;-78
2024/02/19 08:49:54;;;;;;;;;;;6.90;99.90;;;;;;5008379;28;20681;-79
2024/02/19 08:52:19;;;;;;;;;;;7.00;99.90;;;;;;5008497;28;19909;-79
2024/02/19 08:54:45;;;;;;;;;;;7.10;99.90;;;;;;5027346;28;19905;-78
2024/02/19 08:57:11;;;;;;;;;;;7.20;99.90;;;;;;5009214;28;19925;-79
2024/02/19 08:59:44;;;;;;;;;;;7.20;99.90;;;;;;5008790;28;19912;-78
2024/02/19 09:02:10;;;;;;;;;;;7.20;99.90;;;;;;5008816;28;19909;-79
2024/02/19 09:04:36;;;;;;;;;;;7.30;99.90;;;;;;5026429;28;19980;-78
2024/02/19 09:07:01;;;;;;;;;;;7.30;99.90;;;;;;5012344;28;20389;-78
2024/02/19 09:09:27;;;;;;;;;;;7.40;99.90;;;;;;5015997;28;19889;-79
2024/02/19 09:11:52;;;;;;;;;;;7.50;99.90;;;;;;5032852;28;19916;-78
2024/02/19 09:14:21;;;;;;;;;;;7.60;99.90;;;;;;5012592;28;19909;-78
2024/02/19 09:16:47;;;;;;;;;;;7.50;99.90;;;;;;5031936;28;19960;-78
2024/02/19 09:19:14;;;;;;;;;;;7.60;99.90;;;;;;5027961;28;19921;-76
2024/02/19 09:21:39;;;;;;;;;;;7.50;99.90;;;;;;5025185;28;19905;-78
2024/02/19 09:24:05;;;;;;;;;;;7.50;99.90;;;;;;5008512;28;19928;-78
2024/02/19 09:26:30;;;;;;;;;;;7.50;99.90;;;;;;5025827;28;19955;-79
2024/02/19 09:28:56;;;;;;;;;;;7.50;99.90;;;;;;5025121;28;19905;-79
2024/02/19 09:31:23;;;;;;;;;;;7.50;99.90;;;;;;5025081;28;19999;-78
2024/02/19 09:33:49;;;;;;;;;;;7.60;99.90;;;;;;5006524;28;19909;-77
2024/02/19 09:36:18;;;;;;;;;;;7.60;99.90;;;;;;5006665;28;19913;-79
2024/02/19 09:38:44;;;;;;;;;;;7.50;99.90;;;;;;5004584;28;19932;-79
2024/02/19 09:41:09;;;;;;;;;;;7.50;99.90;;;;;;5006454;28;19889;-77
2024/02/19 09:43:35;;;;;;;;;;;7.50;99.90;;;;;;5006413;28;19909;-78
2024/02/19 09:46:03;;;;;;;;;;;7.40;99.90;;;;;;5006680;28;19971;-79
2024/02/19 09:48:31;;;;;;;;;;;7.40;99.90;;;;;;5006848;28;19909;-77
2024/02/19 09:50:59;;;;;;;;;;;7.40;99.90;;;;;;5006147;28;19906;-78
2024/02/19 09:53:27;;;;;;;;;;;7.50;99.90;;;;;;5007133;28;19912;-79
2024/02/19 09:55:53;;;;;;;;;;;7.50;99.90;;;;;;5024512;28;19921;-79
2024/02/19 09:58:19;;;;;;;;;;;7.50;99.90;;;;;;5011002;28;20294;-79
2024/02/19 10:00:44;;;;;;;;;;;7.50;99.90;;;;;;5014081;28;19909;-79
2024/02/19 10:03:10;;;;;;;;;;;7.40;99.90;;;;;;5024807;28;19906;-78
2024/02/19 10:05:36;;;;;;;;;;;7.40;99.90;;;;;;5009360;28;19917;-78
2024/02/19 10:08:05;;;;;;;;;;;7.40;99.90;;;;;;5026791;28;19905;-79
2024/02/19 10:10:32;;;;;;;;;;;7.30;99.90;;;;;;5008866;28;19905;-78
2024/02/19 10:12:58;;;;;;;;;;;7.30;99.90;;;;;;5008996;28;19905;-79
2024/02/19 10:15:23;;;;;;;;;;;7.40;99.90;;;;;;5008884;28;19917;-79
2024/02/19 10:17:49;;;;;;;;;;;7.40;99.90;;;;;;5005816;28;19917;-77
2024/02/19 10:20:15;;;;;;;;;;;7.40;99.90;;;;;;5027450;28;19906;-78
2024/02/19 10:22:40;;;;;;;;;;;7.40;99.90;;;;;;5009509;28;20392;-78
2024/02/19 10:25:07;;;;;;;;;;;7.40;99.90;;;;;;5026447;28;20004;-78
2024/02/19 10:27:36;;;;;;;;;;;7.40;99.90;;;;;;5025487;28;19913;-79
2024/02/19 10:30:02;;;;;;;;;;;7.40;99.90;;;;;;5027577;28;19912;-77
2024/02/19 10:32:27;;;;;;;;;;;7.40;99.90;;;;;;5009711;28;19968;-79
2024/02/19 10:34:53;;;;;;;;;;;7.90;99.90;;;;;;5009967;28;19909;-78
2024/02/19 10:37:19;;;;;;;;;;;7.40;99.90;;;;;;5009638;28;19917;-78
2024/02/19 10:39:45;;;;;;;;;;;7.40;99.90;;;;;;5008837;28;19970;-78
2024/02/19 10:42:10;;;;;;;;;;;7.40;99.90;;;;;;5025202;28;19906;-78
2024/02/19 10:44:36;;;;;;;;;;;7.30;99.90;;;;;;5025888;28;19979;-78
2024/02/19 10:47:02;;;;;;;;;;;7.30;99.90;;;;;;5009520;28;19909;-78
2024/02/19 10:49:27;;;;;;;;;;;7.30;99.90;;;;;;5010266;28;19984;-79
2024/02/19 10:51:53;;;;;;;;;;;7.30;99.90;;;;;;5009850;28;20028;-78
2024/02/19 10:54:18;;;;;;;;;;;7.40;99.90;;;;;;5026684;28;19909;-77
2024/02/19 10:56:44;;;;;;;;;;;7.30;99.90;;;;;;5009726;28;19918;-79
2024/02/19 10:59:16;;;;;;;;;;;7.50;99.90;;;;;;5028225;28;19905;-78
2024/02/19 11:01:43;;;;;;;;;;;7.50;99.90;;;;;;5027543;28;20000;-78
2024/02/19 11:04:23;;;;;;;;;;;7.50;99.90;;;;;;5011613;28;19913;-78
2024/02/19 11:06:54;;;;;;;;;;;7.50;99.90;;;;;;5010874;28;19909;-79
2024/02/19 11:09:23;;;;;;;;;;;7.30;99.90;;;;;;5011531;28;20290;-78
2024/02/19 11:11:52;;;;;;;;;;;7.30;99.90;;;;;;5009628;28;19965;-78
2024/02/19 11:14:21;;;;;;;;;;;7.20;99.90;;;;;;5009591;28;20268;-79
2024/02/19 11:16:47;;;;;;;;;;;7.10;99.90;;;;;;5028584;28;19913;-79
2024/02/19 11:19:12;;;;;;;;;;;7.10;99.90;;;;;;5010693;28;19973;-78
2024/02/19 11:21:38;;;;;;;;;;;7.00;99.90;;;;;;5028434;28;19905;-79
2024/02/19 11:24:04;;;;;;;;;;;6.90;99.90;;;;;;5008853;28;19910;-78
2024/02/19 11:26:31;;;;;;;;;;;6.90;99.90;;;;;;5010455;28;19909;-78
2024/02/19 11:28:56;;;;;;;;;;;6.80;99.90;;;;;;5028508;28;19927;-79
2024/02/19 11:31:22;;;;;;;;;;;6.70;99.90;;;;;;5028741;28;19945;-78
2024/02/19 11:33:48;;;;;;;;;;;6.70;99.90;;;;;;5027842;28;19959;-78
2024/02/19 11:36:14;;;;;;;;;;;6.60;99.90;;;;;;5027027;28;20255;-78
2024/02/19 11:38:39;;;;;;;;;;;6.70;99.90;;;;;;5010282;28;19936;-79
2024/02/19 11:41:09;;;;;;;;;;;6.60;99.90;;;;;;5012743;28;19909;-79
2024/02/19 11:43:35;;;;;;;;;;;6.60;99.90;;;;;;5030480;28;19913;-78
2024/02/19 11:46:01;;;;;;;;;;;6.60;99.90;;;;;;5027598;28;20374;-78
2024/02/19 11:48:26;;;;;;;;;;;6.60;99.90;;;;;;5009028;28;19906;-79
2024/02/19 11:50:52;;;;;;;;;;;6.50;99.90;;;;;;5008089;28;19912;-78
2024/02/19 11:53:19;;;;;;;;;;;6.50;99.90;;;;;;5026205;28;19945;-78
2024/02/19 11:55:45;;;;;;;;;;;6.50;99.90;;;;;;5008111;28;19909;-78
2024/02/19 11:58:12;;;;;;;;;;;6.60;99.90;;;;;;5009388;28;19973;-78
2024/02/19 12:00:37;;;;;;;;;;;6.60;99.90;;;;;;5027206;28;19911;-78
2024/02/19 12:03:03;;;;;;;;;;;6.60;99.90;;;;;;5009105;28;19941;-78
2024/02/19 12:05:29;;;;;;;;;;;6.70;99.90;;;;;;5007244;28;19909;-79
2024/02/19 12:07:55;;;;;;;;;;;6.80;99.90;;;;;;5025935;28;19905;-77
2024/02/19 12:10:21;;;;;;;;;;;7.00;99.90;;;;;;5009496;28;19905;-78
2024/02/19 12:12:46;;;;;;;;;;;7.10;99.90;;;;;;5010181;28;19909;-79
2024/02/19 12:15:13;;;;;;;;;;;7.30;99.90;;;;;;5028028;28;20404;-78
2024/02/19 12:17:42;;;;;;;;;;;7.40;99.90;;;;;;5010451;28;19913;-78
2024/02/19 12:20:11;;;;;;;;;;;7.50;99.90;;;;;;5009051;28;20042;-76
2024/02/19 12:22:37;;;;;;;;;;;7.60;99.90;;;;;;5027549;28;19922;-78
2024/02/19 12:25:04;;;;;;;;;;;7.70;99.90;;;;;;5028307;28;19916;-78
2024/02/19 12:27:29;;;;;;;;;;;7.70;99.90;;;;;;5011252;28;19929;-79
2024/02/19 12:29:56;;;;;;;;;;;7.80;99.90;;;;;;5014661;28;19909;-78
2024/02/19 12:32:21;;;;;;;;;;;7.90;99.90;;;;;;5033805;28;19889;-79
2024/02/19 12:34:47;;;;;;;;;;;8.00;99.90;;;;;;5011424;28;19981;-78
2024/02/19 12:37:16;;;;;;;;;;;8.00;99.90;;;;;;5015750;28;20333;-80
2024/02/19 12:39:41;;;;;;;;;;;8.00;99.90;;;;;;5034073;28;19890;-78
2024/02/19 12:42:08;;;;;;;;;;;8.00;99.90;;;;;;5016874;28;19905;-79
2024/02/19 12:44:34;;;;;;;;;;;7.90;99.90;;;;;;5016804;28;19928;-77
2024/02/19 12:46:59;;;;;;;;;;;8.00;99.90;;;;;;5029075;28;19917;-79
2024/02/19 12:49:27;;;;;;;;;;;8.10;99.90;;;;;;5027152;28;19906;-78
2024/02/19 12:51:53;;;;;;;;;;;8.10;99.90;;;;;;5009554;28;19909;-79
2024/02/19 12:54:20;;;;;;;;;;;8.10;99.90;;;;;;5027725;28;19906;-78
2024/02/19 12:56:46;;;;;;;;;;;8.20;99.90;;;;;;5009251;28;19909;-77
2024/02/19 12:59:11;;;;;;;;;;;8.20;99.90;;;;;;5026968;28;19910;-78
2024/02/19 13:01:37;;;;;;;;;;;8.20;99.90;;;;;;5010021;28;19913;-78
2024/02/19 13:04:03;;;;;;;;;;;8.20;99.90;;;;;;5008719;28;19906;-78
2024/02/19 13:06:28;;;;;;;;;;;8.20;99.90;;;;;;5006533;28;19906;-77
2024/02/19 13:08:54;;;;;;;;;;;8.10;99.90;;;;;;5026007;28;19969;-78
2024/02/19 13:11:19;;;;;;;;;;;8.10;99.90;;;;;;5004938;28;19905;-78
2024/02/19 13:13:45;;;;;;;;;;;8.00;99.90;;;;;;5007604;28;19910;-78
2024/02/19 13:16:14;;;;;;;;;;;8.00;99.90;;;;;;5008555;28;19909;-78
2024/02/19 13:18:39;;;;;;;;;;;8.00;99.90;;;;;;5008752;28;20321;-77
2024/02/19 13:21:05;;;;;;;;;;;7.90;99.90;;;;;;5008512;28;19905;-77
2024/02/19 13:23:30;;;;;;;;;;;7.80;99.90;;;;;;5009324;28;19905;-78
2024/02/19 13:25:56;;;;;;;;;;;7.80;99.90;;;;;;5008540;28;19910;-78
2024/02/19 13:28:22;;;;;;;;;;;7.70;99.90;;;;;;5026306;28;19906;-79
2024/02/19 13:30:47;;;;;;;;;;;7.60;99.90;;;;;;5026300;28;20386;-79
2024/02/19 13:33:14;;;;;;;;;;;7.60;99.90;;;;;;5008010;28;20004;-78
2024/02/19 13:35:39;;;;;;;;;;;7.60;99.90;;;;;;5025463;28;19920;-79
2024/02/19 13:38:05;;;;;;;;;;;7.60;99.90;;;;;;5008972;28;20294;-80
2024/02/19 13:40:31;;;;;;;;;;;7.60;99.90;;;;;;5013601;28;19964;-78
2024/02/19 13:42:56;;;;;;;;;;;7.50;99.90;;;;;;5012229;28;20030;-78
2024/02/19 13:45:25;;;;;;;;;;;7.50;99.90;;;;;;5028819;28;20374;-77
2024/02/19 13:47:58;;;;;;;;;;;7.50;99.90;;;;;;5011221;28;19976;-78
2024/02/19 13:50:24;;;;;;;;;;;7.50;99.90;;;;;;5028141;28;19909;-78
2024/02/19 13:52:50;;;;;;;;;;;7.40;99.90;;;;;;5009507;28;20000;-79
2024/02/19 13:55:15;;;;;;;;;;;7.30;99.90;;;;;;5008770;28;19920;-78
2024/02/19 13:57:41;;;;;;;;;;;7.30;99.90;;;;;;5010133;28;20325;-78
2024/02/19 14:00:07;;;;;;;;;;;7.30;99.90;;;;;;5011292;28;19933;-79
2024/02/19 14:02:33;;;;;;;;;;;7.20;99.90;;;;;;5028462;28;19913;-78
2024/02/19 14:04:59;;;;;;;;;;;7.20;99.90;;;;;;5009170;28;19960;-78
2024/02/19 14:07:24;;;;;;;;;;;7.10;99.90;;;;;;5010669;28;19935;-78
2024/02/19 14:09:50;;;;;;;;;;;7.10;99.90;;;;;;5010198;28;19912;-77
2024/02/19 14:12:16;;;;;;;;;;;7.10;99.90;;;;;;5027283;28;19912;-78
2024/02/19 14:14:41;;;;;;;;;;;7.00;99.90;;;;;;5027638;28;19905;-79
2024/02/19 14:17:07;;;;;;;;;;;7.00;99.90;;;;;;5009515;28;19917;-79
2024/02/19 14:19:33;;;;;;;;;;;6.90;99.90;;;;;;5027762;28;19909;-78
2024/02/19 14:21:59;;;;;;;;;;;6.90;99.90;;;;;;5009118;28;19905;-78
2024/02/19 14:24:25;;;;;;;;;;;6.90;99.90;;;;;;5008452;28;19913;-78